createdAt,value
2017-12-19T00:00:51.853Z,99.99
2017-12-19T00:01:51.828Z,99.99
2017-12-19T00:02:51.591Z,99.99
2017-12-19T00:03:51.828Z,99.99
2017-12-19T00:04:51.805Z,99.99
2017-12-19T00:05:51.805Z,99.99
2017-12-19T00:06:51.788Z,99.99
2017-12-19T00:07:51.548Z,99.99
2017-12-19T00:08:51.768Z,99.99
2017-12-19T00:09:51.767Z,99.99
2017-12-19T00:10:51.768Z,99.99
2017-12-19T00:11:51.748Z,99.99
2017-12-19T00:12:51.740Z,99.99
2017-12-19T00:13:51.477Z,99.99
2017-12-19T00:14:51.474Z,99.99
2017-12-19T00:15:51.461Z,99.99
2017-12-19T00:16:51.703Z,99.99
2017-12-19T00:17:51.703Z,99.99
2017-12-19T00:18:51.692Z,99.99
2017-12-19T00:19:53.045Z,99.99
2017-12-19T00:20:51.679Z,99.99
2017-12-19T00:21:51.659Z,99.99
2017-12-19T00:22:51.656Z,99.99
2017-12-19T00:23:51.389Z,99.99
2017-12-19T00:24:51.632Z,99.99
2017-12-19T00:25:51.628Z,99.99
2017-12-19T00:26:51.616Z,99.99
2017-12-19T00:27:51.614Z,99.99
2017-12-19T00:28:51.347Z,99.99
2017-12-19T00:29:51.589Z,99.99
2017-12-19T00:30:51.326Z,99.99
2017-12-19T00:31:51.577Z,99.99
2017-12-19T00:32:51.571Z,99.99
2017-12-19T00:33:51.558Z,99.99
2017-12-19T00:34:51.566Z,99.99
2017-12-19T00:35:51.550Z,99.99
2017-12-19T00:36:51.535Z,99.99
2017-12-19T00:37:51.266Z,99.99
2017-12-19T00:38:51.258Z,99.99
2017-12-19T00:39:51.266Z,99.99
2017-12-19T00:40:51.499Z,99.99
2017-12-19T00:41:51.486Z,99.99
2017-12-19T00:42:51.479Z,99.99
2017-12-19T00:43:51.216Z,99.99
2017-12-19T00:44:51.466Z,99.99
2017-12-19T00:45:51.202Z,99.99
2017-12-19T00:46:51.446Z,99.99
2017-12-19T00:47:51.436Z,99.99
2017-12-19T00:48:51.423Z,99.99
2017-12-19T00:49:51.416Z,99.99
2017-12-19T00:50:51.409Z,99.99
2017-12-19T00:51:51.407Z,99.99
2017-12-19T00:52:51.390Z,99.99
2017-12-19T00:53:51.384Z,99.99
2017-12-19T00:54:51.376Z,99.99
2017-12-19T00:55:51.113Z,99.99
2017-12-19T00:56:51.360Z,99.99
2017-12-19T00:57:51.097Z,99.99
2017-12-19T00:58:51.087Z,99.99
2017-12-19T00:59:51.079Z,99.99
2017-12-19T01:00:51.331Z,99.99
2017-12-19T01:01:51.317Z,99.99
2017-12-19T01:02:51.311Z,99.99
2017-12-19T01:03:51.300Z,99.99
2017-12-19T01:04:51.037Z,99.99
2017-12-19T01:05:51.556Z,99.99
2017-12-19T01:06:51.275Z,99.99
2017-12-19T01:07:51.267Z,99.99
2017-12-19T01:08:51.256Z,99.99
2017-12-19T01:09:51.032Z,99.99
2017-12-19T01:10:51.237Z,99.99
2017-12-19T01:11:51.234Z,99.99
2017-12-19T01:12:51.230Z,99.99
2017-12-19T01:13:51.213Z,99.99
2017-12-19T01:14:51.209Z,99.99
2017-12-19T01:15:50.942Z,99.99
2017-12-19T01:16:51.186Z,99.99
2017-12-19T01:17:51.176Z,99.99
2017-12-19T01:18:51.174Z,99.99
2017-12-19T01:19:50.909Z,99.99
2017-12-19T01:20:51.154Z,99.99
2017-12-19T01:21:51.173Z,99.99
2017-12-19T01:22:51.134Z,99.99
2017-12-19T01:23:51.136Z,99.99
2017-12-19T01:24:51.124Z,99.99
2017-12-19T01:25:51.109Z,99.99
2017-12-19T01:26:50.849Z,99.99
2017-12-19T01:27:51.099Z,99.99
2017-12-19T01:28:50.831Z,99.99
2017-12-19T01:29:51.088Z,99.99
2017-12-19T01:30:51.071Z,99.99
2017-12-19T01:31:51.070Z,99.99
2017-12-19T01:32:50.797Z,99.99
2017-12-19T01:33:51.081Z,99.99
2017-12-19T01:34:51.042Z,99.99
2017-12-19T01:35:51.024Z,99.99
2017-12-19T01:36:51.021Z,99.99
2017-12-19T01:37:51.015Z,99.99
2017-12-19T01:38:51.017Z,99.99
2017-12-19T01:39:50.988Z,99.99
2017-12-19T01:40:50.990Z,99.99
2017-12-19T01:41:51.032Z,99.99
2017-12-19T01:42:50.967Z,99.99
2017-12-19T01:43:50.959Z,99.99
2017-12-19T01:44:50.957Z,99.99
2017-12-19T01:45:50.950Z,99.99
2017-12-19T01:46:50.678Z,99.99
2017-12-19T01:47:50.673Z,99.99
2017-12-19T01:48:50.912Z,99.99
2017-12-19T01:49:50.916Z,99.99
2017-12-19T01:50:50.902Z,99.99
2017-12-19T01:51:51.945Z,99.99
2017-12-19T01:52:50.877Z,99.99
2017-12-19T01:53:50.873Z,99.99
2017-12-19T01:54:50.859Z,99.99
2017-12-19T01:55:50.853Z,99.99
2017-12-19T01:56:50.850Z,99.99
2017-12-19T01:57:50.836Z,99.99
2017-12-19T01:58:50.572Z,99.99
2017-12-19T01:59:50.826Z,99.99
2017-12-19T02:00:50.811Z,99.99
2017-12-19T02:01:50.798Z,99.99
2017-12-19T02:02:50.796Z,99.99
2017-12-19T02:03:50.781Z,99.99
2017-12-19T02:04:50.773Z,99.99
2017-12-19T02:05:50.763Z,99.99
2017-12-19T02:06:51.559Z,99.99
2017-12-19T02:07:50.754Z,99.99
2017-12-19T02:08:50.739Z,99.99
2017-12-19T02:09:50.728Z,99.99
2017-12-19T02:10:50.720Z,99.99
2017-12-19T02:11:50.714Z,99.99
2017-12-19T02:12:50.702Z,99.99
2017-12-19T02:13:50.695Z,99.99
2017-12-19T02:14:50.689Z,99.99
2017-12-19T02:15:50.679Z,99.99
2017-12-19T02:16:50.415Z,99.99
2017-12-19T02:17:50.659Z,99.99
2017-12-19T02:18:50.649Z,99.99
2017-12-19T02:19:50.649Z,99.99
2017-12-19T02:20:50.634Z,99.99
2017-12-19T02:21:50.624Z,99.99
2017-12-19T02:22:50.617Z,99.99
2017-12-19T02:23:50.358Z,99.99
2017-12-19T02:24:50.600Z,99.99
2017-12-19T02:25:50.342Z,99.99
2017-12-19T02:26:50.327Z,99.99
2017-12-19T02:27:50.320Z,99.99
2017-12-19T02:28:50.564Z,99.99
2017-12-19T02:29:50.308Z,99.99
2017-12-19T02:30:50.547Z,99.99
2017-12-19T02:31:50.541Z,99.99
2017-12-19T02:32:50.276Z,99.99
2017-12-19T02:33:50.536Z,99.99
2017-12-19T02:34:50.261Z,99.99
2017-12-19T02:35:50.252Z,99.99
2017-12-19T02:36:50.498Z,99.99
2017-12-19T02:37:50.240Z,99.99
2017-12-19T02:38:50.491Z,99.99
2017-12-19T02:39:50.481Z,99.99
2017-12-19T02:40:50.469Z,99.99
2017-12-19T02:41:50.465Z,99.99
2017-12-19T02:42:50.449Z,99.99
2017-12-19T02:43:50.438Z,99.99
2017-12-19T02:44:50.429Z,99.99
2017-12-19T02:45:50.420Z,99.99
2017-12-19T02:46:50.416Z,99.99
2017-12-19T02:47:50.405Z,99.99
2017-12-19T02:48:50.396Z,99.99
2017-12-19T02:49:50.134Z,99.99
2017-12-19T02:50:50.388Z,99.99
2017-12-19T02:51:50.368Z,99.99
2017-12-19T02:52:50.116Z,99.99
2017-12-19T02:53:50.362Z,99.99
2017-12-19T02:54:50.352Z,99.99
2017-12-19T02:55:50.096Z,99.99
2017-12-19T02:56:50.323Z,99.99
2017-12-19T02:57:50.314Z,99.99
2017-12-19T02:58:50.308Z,99.99
2017-12-19T02:59:50.072Z,99.99
2017-12-19T03:00:50.295Z,99.99
2017-12-19T03:01:50.281Z,99.99
2017-12-19T03:02:50.271Z,99.99
2017-12-19T03:03:50.267Z,99.99
2017-12-19T03:04:50.019Z,99.99
2017-12-19T03:05:50.246Z,99.99
2017-12-19T03:06:50.234Z,99.99
2017-12-19T03:07:52.930Z,99.99
2017-12-19T03:08:49.972Z,99.99
2017-12-19T03:09:50.211Z,99.99
2017-12-19T03:10:50.208Z,99.99
2017-12-19T03:11:50.193Z,99.99
2017-12-19T03:12:50.179Z,99.99
2017-12-19T03:13:50.174Z,99.99
2017-12-19T03:14:50.162Z,99.99
2017-12-19T03:15:49.910Z,99.99
2017-12-19T03:16:50.153Z,99.99
2017-12-19T03:17:50.143Z,99.99
2017-12-19T03:18:50.132Z,99.99
2017-12-19T03:19:50.125Z,99.99
2017-12-19T03:20:50.115Z,99.99
2017-12-19T03:21:50.105Z,99.99
2017-12-19T03:22:51.464Z,99.99
2017-12-19T03:23:50.087Z,99.99
2017-12-19T03:24:50.080Z,99.99
2017-12-19T03:25:50.074Z,99.99
2017-12-19T03:26:50.070Z,99.99
2017-12-19T03:27:50.060Z,99.99
2017-12-19T03:28:49.793Z,99.99
2017-12-19T03:29:50.032Z,99.99
2017-12-19T03:30:50.061Z,99.99
2017-12-19T03:31:50.019Z,99.99
2017-12-19T03:32:50.020Z,99.99
2017-12-19T03:33:49.997Z,99.99
2017-12-19T03:34:49.729Z,99.99
2017-12-19T03:35:49.987Z,99.99
2017-12-19T03:36:49.969Z,99.99
2017-12-19T03:37:49.969Z,99.99
2017-12-19T03:38:49.974Z,99.99
2017-12-19T03:39:49.958Z,99.99
2017-12-19T03:40:49.942Z,99.99
2017-12-19T03:41:49.930Z,99.99
2017-12-19T03:42:49.915Z,99.99
2017-12-19T03:43:49.926Z,99.99
2017-12-19T03:44:49.903Z,99.99
2017-12-19T03:45:49.893Z,99.99
2017-12-19T03:46:49.883Z,99.99
2017-12-19T03:47:49.883Z,99.99
2017-12-19T03:48:49.872Z,99.99
2017-12-19T03:49:49.595Z,99.99
2017-12-19T03:50:49.838Z,99.99
2017-12-19T03:51:49.838Z,99.99
2017-12-19T03:52:49.825Z,99.99
2017-12-19T03:53:49.819Z,99.99
2017-12-19T03:54:49.569Z,99.99
2017-12-19T03:55:49.792Z,99.99
2017-12-19T03:56:49.531Z,99.99
2017-12-19T03:57:49.779Z,99.99
2017-12-19T03:58:49.767Z,99.99
2017-12-19T03:59:49.761Z,99.99
2017-12-19T04:00:49.495Z,99.99
2017-12-19T04:01:49.741Z,99.99
2017-12-19T04:02:49.728Z,99.99
2017-12-19T04:03:49.724Z,99.99
2017-12-19T04:04:49.466Z,99.99
2017-12-19T04:05:49.454Z,99.99
2017-12-19T04:06:49.702Z,99.99
2017-12-19T04:07:49.686Z,99.99
2017-12-19T04:08:49.686Z,99.99
2017-12-19T04:09:49.668Z,99.99
2017-12-19T04:10:49.664Z,99.99
2017-12-19T04:11:49.653Z,99.99
2017-12-19T04:12:49.647Z,99.99
2017-12-19T04:13:49.381Z,99.99
2017-12-19T04:14:49.634Z,99.99
2017-12-19T04:15:49.622Z,99.99
2017-12-19T04:16:49.611Z,99.99
2017-12-19T04:17:49.606Z,99.99
2017-12-19T04:18:49.601Z,99.99
2017-12-19T04:19:49.588Z,99.99
2017-12-19T04:20:49.320Z,99.99
2017-12-19T04:21:49.565Z,99.99
2017-12-19T04:22:49.554Z,99.99
2017-12-19T04:23:50.606Z,99.99
2017-12-19T04:24:49.543Z,99.99
2017-12-19T04:25:49.528Z,99.99
2017-12-19T04:26:49.518Z,99.99
2017-12-19T04:27:49.507Z,99.99
2017-12-19T04:28:49.503Z,99.99
2017-12-19T04:29:49.489Z,99.99
2017-12-19T04:30:49.241Z,99.99
2017-12-19T04:31:49.475Z,99.99
2017-12-19T04:32:49.215Z,99.99
2017-12-19T04:33:49.460Z,99.99
2017-12-19T04:34:49.444Z,99.99
2017-12-19T04:35:49.441Z,99.99
2017-12-19T04:36:49.428Z,99.99
2017-12-19T04:37:49.169Z,99.99
2017-12-19T04:38:51.811Z,99.99
2017-12-19T04:39:49.145Z,99.99
2017-12-19T04:40:49.389Z,99.99
2017-12-19T04:41:49.383Z,99.99
2017-12-19T04:42:49.372Z,99.99
2017-12-19T04:43:49.365Z,99.99
2017-12-19T04:44:49.111Z,99.99
2017-12-19T04:45:49.352Z,99.99
2017-12-19T04:46:49.340Z,99.99
2017-12-19T04:47:49.323Z,99.99
2017-12-19T04:48:49.326Z,99.99
2017-12-19T04:49:49.305Z,99.99
2017-12-19T04:50:49.306Z,99.99
2017-12-19T04:51:49.288Z,99.99
2017-12-19T04:52:49.278Z,99.99
2017-12-19T04:53:49.268Z,99.99
2017-12-19T04:54:49.266Z,99.99
2017-12-19T04:55:48.996Z,99.99
2017-12-19T04:56:49.243Z,99.99
2017-12-19T04:57:49.236Z,99.99
2017-12-19T04:58:49.223Z,99.99
2017-12-19T04:59:49.213Z,99.99
2017-12-19T05:00:49.203Z,99.99
2017-12-19T05:01:49.202Z,99.99
2017-12-19T05:02:49.187Z,99.99
2017-12-19T05:03:49.175Z,99.99
2017-12-19T05:04:49.170Z,99.99
2017-12-19T05:05:49.156Z,99.99
2017-12-19T05:06:49.150Z,99.99
2017-12-19T05:07:49.154Z,99.99
2017-12-19T05:08:49.148Z,99.99
2017-12-19T05:09:49.320Z,99.99
2017-12-19T05:10:49.111Z,99.99
2017-12-19T05:11:49.105Z,99.99
2017-12-19T05:12:48.841Z,99.99
2017-12-19T05:13:49.095Z,99.99
2017-12-19T05:14:49.095Z,99.99
2017-12-19T05:15:49.066Z,99.99
2017-12-19T05:16:49.054Z,99.99
2017-12-19T05:17:49.052Z,99.99
2017-12-19T05:18:49.040Z,99.99
2017-12-19T05:19:49.026Z,99.99
2017-12-19T05:20:49.025Z,99.99
2017-12-19T05:21:49.011Z,99.99
2017-12-19T05:22:49.000Z,99.99
2017-12-19T05:23:49.044Z,99.99
2017-12-19T05:24:50.242Z,99.99
2017-12-19T05:25:48.723Z,99.99
2017-12-19T05:26:48.969Z,99.99
2017-12-19T05:27:48.951Z,99.99
2017-12-19T05:28:48.942Z,99.99
2017-12-19T05:29:48.933Z,99.99
2017-12-19T05:30:48.927Z,99.99
2017-12-19T05:31:48.916Z,99.99
2017-12-19T05:32:48.906Z,99.99
2017-12-19T05:33:48.910Z,99.99
2017-12-19T05:34:49.687Z,99.99
2017-12-19T05:35:48.884Z,99.99
2017-12-19T05:36:48.869Z,99.99
2017-12-19T05:37:48.862Z,99.99
2017-12-19T05:38:48.858Z,99.99
2017-12-19T05:39:48.841Z,99.99
2017-12-19T05:40:48.829Z,99.99
2017-12-19T05:41:48.566Z,99.99
2017-12-19T05:42:48.813Z,99.99
2017-12-19T05:43:48.802Z,99.99
2017-12-19T05:44:48.794Z,99.99
2017-12-19T05:45:48.535Z,99.99
2017-12-19T05:46:48.783Z,99.99
2017-12-19T05:47:48.769Z,99.99
2017-12-19T05:48:48.763Z,99.99
2017-12-19T05:49:48.744Z,99.99
2017-12-19T05:50:48.735Z,99.99
2017-12-19T05:51:48.761Z,99.99
2017-12-19T05:52:48.723Z,99.99
2017-12-19T05:53:48.718Z,99.99
2017-12-19T05:54:48.713Z,99.99
2017-12-19T05:55:48.690Z,99.99
2017-12-19T05:56:48.686Z,99.99
2017-12-19T05:57:48.674Z,99.99
2017-12-19T05:58:48.665Z,99.99
2017-12-19T05:59:48.665Z,99.99
2017-12-19T06:00:48.656Z,99.99
2017-12-19T06:01:48.639Z,99.99
2017-12-19T06:02:48.634Z,99.99
2017-12-19T06:03:48.371Z,99.99
2017-12-19T06:04:48.621Z,99.99
2017-12-19T06:05:48.606Z,99.99
2017-12-19T06:06:48.584Z,99.99
2017-12-19T06:07:48.576Z,99.99
2017-12-19T06:08:48.566Z,99.99
2017-12-19T06:09:48.304Z,99.99
2017-12-19T06:10:48.549Z,99.99
2017-12-19T06:11:48.540Z,99.99
2017-12-19T06:12:48.277Z,99.99
2017-12-19T06:13:48.274Z,99.99
2017-12-19T06:14:48.259Z,99.99
2017-12-19T06:15:48.502Z,99.99
2017-12-19T06:16:48.239Z,99.99
2017-12-19T06:17:48.490Z,99.99
2017-12-19T06:18:48.483Z,99.99
2017-12-19T06:19:48.463Z,99.99
2017-12-19T06:20:48.461Z,99.99
2017-12-19T06:21:48.446Z,99.99
2017-12-19T06:22:48.442Z,99.99
2017-12-19T06:23:48.427Z,99.99
2017-12-19T06:24:48.425Z,99.99
2017-12-19T06:25:52.463Z,99.99
2017-12-19T06:26:48.408Z,99.99
2017-12-19T06:27:48.138Z,99.99
2017-12-19T06:28:48.385Z,99.99
2017-12-19T06:29:48.373Z,99.99
2017-12-19T06:30:48.359Z,99.99
2017-12-19T06:31:48.101Z,99.99
2017-12-19T06:32:48.341Z,99.99
2017-12-19T06:33:48.335Z,99.99
2017-12-19T06:34:48.333Z,99.99
2017-12-19T06:35:48.312Z,99.99
2017-12-19T06:36:48.310Z,99.99
2017-12-19T06:37:48.306Z,99.99
2017-12-19T06:38:48.285Z,99.99
2017-12-19T06:39:48.276Z,99.99
2017-12-19T06:40:48.268Z,99.99
2017-12-19T06:41:48.254Z,99.99
2017-12-19T06:42:48.251Z,99.99
2017-12-19T06:43:48.237Z,99.99
2017-12-19T06:44:48.231Z,99.99
2017-12-19T06:45:48.220Z,99.99
2017-12-19T06:46:48.213Z,99.99
2017-12-19T06:47:48.203Z,99.99
2017-12-19T06:48:48.196Z,99.99
2017-12-19T06:49:48.188Z,99.99
2017-12-19T06:50:48.194Z,99.99
2017-12-19T06:51:48.164Z,99.99
2017-12-19T06:52:48.155Z,99.99
2017-12-19T06:53:47.893Z,99.99
2017-12-19T06:54:48.141Z,99.99
2017-12-19T06:55:48.136Z,99.99
2017-12-19T06:56:48.121Z,99.99
2017-12-19T06:57:48.111Z,99.99
2017-12-19T06:58:48.102Z,99.99
2017-12-19T06:59:48.096Z,99.99
2017-12-19T07:00:48.082Z,99.99
2017-12-19T07:01:47.836Z,99.99
2017-12-19T07:02:48.062Z,99.99
2017-12-19T07:03:48.057Z,99.99
2017-12-19T07:04:48.067Z,99.99
2017-12-19T07:05:48.034Z,99.99
2017-12-19T07:06:48.035Z,99.99
2017-12-19T07:07:48.022Z,99.99
2017-12-19T07:08:48.011Z,99.99
2017-12-19T07:09:48.008Z,99.99
2017-12-19T07:10:48.008Z,99.99
2017-12-19T07:11:47.978Z,99.99
2017-12-19T07:12:47.972Z,99.99
2017-12-19T07:13:47.708Z,99.99
2017-12-19T07:14:47.949Z,99.99
2017-12-19T07:15:47.942Z,99.99
2017-12-19T07:16:47.688Z,99.99
2017-12-19T07:17:47.922Z,99.99
2017-12-19T07:18:47.910Z,99.99
2017-12-19T07:19:47.902Z,99.99
2017-12-19T07:20:47.893Z,99.99
2017-12-19T07:21:47.631Z,99.99
2017-12-19T07:22:47.879Z,99.99
2017-12-19T07:23:47.867Z,99.99
2017-12-19T07:24:47.859Z,99.99
2017-12-19T07:25:47.852Z,99.99
2017-12-19T07:26:47.844Z,99.99
2017-12-19T07:27:47.578Z,99.99
2017-12-19T07:28:47.825Z,99.99
2017-12-19T07:29:47.814Z,99.99
2017-12-19T07:30:47.552Z,99.99
2017-12-19T07:31:47.551Z,99.99
2017-12-19T07:32:47.786Z,99.99
2017-12-19T07:33:47.777Z,99.99
2017-12-19T07:34:47.769Z,99.99
2017-12-19T07:35:47.764Z,99.99
2017-12-19T07:36:47.748Z,99.99
2017-12-19T07:37:47.935Z,99.99
2017-12-19T07:38:47.737Z,99.99
2017-12-19T07:39:47.479Z,99.99
2017-12-19T07:40:47.720Z,99.99
2017-12-19T07:41:47.714Z,99.99
2017-12-19T07:42:47.699Z,99.99
2017-12-19T07:43:47.690Z,99.99
2017-12-19T07:44:47.686Z,99.99
2017-12-19T07:45:47.680Z,99.99
2017-12-19T07:46:47.668Z,99.99
2017-12-19T07:47:47.661Z,99.99
2017-12-19T07:48:47.649Z,99.99
2017-12-19T07:49:47.644Z,99.99
2017-12-19T07:50:47.632Z,99.99
2017-12-19T07:51:47.627Z,99.99
2017-12-19T07:52:47.361Z,99.99
2017-12-19T07:53:47.624Z,99.99
2017-12-19T07:54:47.631Z,99.99
2017-12-19T07:55:47.584Z,99.99
2017-12-19T07:56:48.605Z,99.99
2017-12-19T07:57:47.567Z,99.99
2017-12-19T07:58:47.561Z,99.99
2017-12-19T07:59:47.557Z,99.99
2017-12-19T08:00:47.551Z,99.99
2017-12-19T08:01:47.527Z,99.99
2017-12-19T08:02:47.515Z,99.99
2017-12-19T08:03:47.507Z,99.99
2017-12-19T08:04:47.508Z,99.99
2017-12-19T08:05:47.496Z,99.99
2017-12-19T08:06:47.496Z,99.99
2017-12-19T08:07:47.470Z,99.99
2017-12-19T08:08:47.461Z,99.99
2017-12-19T08:09:47.459Z,99.99
2017-12-19T08:10:47.442Z,99.99
2017-12-19T08:11:47.440Z,99.99
2017-12-19T08:12:47.435Z,99.99
2017-12-19T08:13:47.420Z,99.99
2017-12-19T08:14:47.407Z,99.99
2017-12-19T08:15:47.401Z,99.99
2017-12-19T08:16:47.391Z,99.99
2017-12-19T08:17:47.381Z,99.99
2017-12-19T08:18:47.374Z,99.99
2017-12-19T08:19:47.367Z,99.99
2017-12-19T08:20:47.372Z,99.99
2017-12-19T08:21:47.355Z,99.99
2017-12-19T08:22:47.340Z,99.99
2017-12-19T08:23:47.332Z,99.99
2017-12-19T08:24:47.328Z,99.99
2017-12-19T08:25:47.312Z,99.99
2017-12-19T08:26:48.406Z,99.99
2017-12-19T08:27:47.300Z,99.99
2017-12-19T08:28:47.301Z,99.99
2017-12-19T08:29:47.278Z,99.99
2017-12-19T08:30:47.272Z,99.99
2017-12-19T08:31:47.264Z,99.99
2017-12-19T08:32:47.261Z,99.99
2017-12-19T08:33:47.253Z,99.99
2017-12-19T08:34:47.238Z,99.99
2017-12-19T08:35:47.233Z,99.99
2017-12-19T08:36:47.228Z,99.99
2017-12-19T08:37:47.213Z,99.99
2017-12-19T08:38:47.206Z,99.99
2017-12-19T08:39:47.211Z,99.99
2017-12-19T08:40:47.208Z,99.99
2017-12-19T08:41:47.182Z,99.99
2017-12-19T08:42:47.186Z,99.99
2017-12-19T08:43:47.168Z,99.99
2017-12-19T08:44:47.157Z,99.99
2017-12-19T08:45:47.153Z,99.99
2017-12-19T08:46:47.169Z,99.99
2017-12-19T08:47:47.133Z,99.99
2017-12-19T08:48:47.127Z,99.99
2017-12-19T08:49:47.116Z,99.99
2017-12-19T08:50:47.116Z,99.99
2017-12-19T08:51:46.860Z,99.99
2017-12-19T08:52:47.094Z,99.99
2017-12-19T08:53:47.089Z,99.99
2017-12-19T08:54:46.829Z,99.99
2017-12-19T08:55:46.817Z,99.99
2017-12-19T08:56:47.061Z,99.99
2017-12-19T08:57:47.060Z,99.99
2017-12-19T08:58:47.047Z,99.99
2017-12-19T08:59:47.040Z,99.99
2017-12-19T09:00:47.036Z,99.99
2017-12-19T09:01:47.025Z,99.99
2017-12-19T09:02:47.016Z,99.99
2017-12-19T09:03:47.014Z,99.99
2017-12-19T09:04:46.753Z,99.99
2017-12-19T09:05:46.992Z,99.99
2017-12-19T09:06:46.992Z,99.99
2017-12-19T09:07:46.976Z,99.99
2017-12-19T09:08:46.967Z,99.99
2017-12-19T09:09:46.960Z,99.99
2017-12-19T09:10:46.955Z,99.99
2017-12-19T09:11:46.945Z,99.99
2017-12-19T09:12:46.939Z,99.99
2017-12-19T09:13:46.931Z,99.99
2017-12-19T09:14:46.977Z,99.99
2017-12-19T09:15:46.937Z,99.99
2017-12-19T09:16:46.903Z,99.99
2017-12-19T09:17:46.907Z,99.99
2017-12-19T09:18:46.893Z,99.99
2017-12-19T09:19:46.882Z,99.99
2017-12-19T09:20:46.879Z,99.99
2017-12-19T09:21:46.879Z,99.99
2017-12-19T09:22:46.863Z,99.99
2017-12-19T09:23:46.860Z,99.99
2017-12-19T09:24:46.844Z,99.99
2017-12-19T09:25:46.859Z,99.99
2017-12-19T09:26:46.882Z,99.99
2017-12-19T09:27:46.823Z,99.99
2017-12-19T09:28:46.810Z,99.99
2017-12-19T09:29:46.802Z,99.99
2017-12-19T09:30:46.796Z,99.99
2017-12-19T09:31:46.540Z,99.99
2017-12-19T09:32:46.526Z,99.99
2017-12-19T09:33:46.779Z,99.99
2017-12-19T09:34:46.513Z,99.99
2017-12-19T09:35:46.758Z,99.99
2017-12-19T09:36:46.507Z,99.99
2017-12-19T09:37:46.499Z,99.99
2017-12-19T09:38:46.492Z,99.99
2017-12-19T09:39:46.488Z,99.99
2017-12-19T09:40:46.714Z,99.99
2017-12-19T09:41:46.714Z,99.99
2017-12-19T09:42:46.748Z,99.99
2017-12-19T09:43:47.031Z,99.99
2017-12-19T09:44:46.683Z,99.99
2017-12-19T09:45:46.682Z,99.99
2017-12-19T09:46:46.667Z,99.99
2017-12-19T09:47:46.662Z,99.99
2017-12-19T09:48:46.651Z,99.99
2017-12-19T09:49:46.642Z,99.99
2017-12-19T09:50:46.637Z,99.99
2017-12-19T09:51:46.633Z,99.99
2017-12-19T09:52:46.618Z,99.99
2017-12-19T09:53:46.420Z,99.99
2017-12-19T09:54:46.606Z,99.99
2017-12-19T09:55:46.614Z,99.99
2017-12-19T09:56:46.621Z,99.99
2017-12-19T09:57:50.889Z,99.99
2017-12-19T09:58:46.584Z,99.99
2017-12-19T09:59:46.566Z,99.99
2017-12-19T10:00:46.306Z,99.99
2017-12-19T10:01:46.558Z,99.99
2017-12-19T10:02:46.301Z,99.99
2017-12-19T10:03:46.536Z,99.99
2017-12-19T10:04:46.527Z,99.99
2017-12-19T10:05:46.276Z,99.99
2017-12-19T10:06:46.510Z,99.99
2017-12-19T10:07:46.504Z,99.99
2017-12-19T10:08:46.504Z,99.99
2017-12-19T10:09:46.501Z,99.99
2017-12-19T10:10:46.487Z,99.99
2017-12-19T10:11:46.480Z,99.99
2017-12-19T10:12:46.464Z,99.99
2017-12-19T10:13:46.473Z,99.99
2017-12-19T10:14:46.459Z,99.99
2017-12-19T10:15:46.443Z,99.99
2017-12-19T10:16:46.176Z,99.99
2017-12-19T10:17:46.427Z,99.99
2017-12-19T10:18:46.431Z,99.99
2017-12-19T10:19:46.421Z,99.99
2017-12-19T10:20:46.414Z,99.99
2017-12-19T10:21:46.442Z,99.99
2017-12-19T10:52:37.547Z,97.54
2017-12-19T10:53:36.333Z,97.73
2017-12-19T10:54:36.340Z,97.64
2017-12-19T10:55:36.049Z,98.11
2017-12-19T10:56:36.036Z,98.21
2017-12-19T10:57:36.276Z,98.21
2017-12-19T10:58:36.272Z,98.77
2017-12-19T10:59:36.257Z,98.21
2017-12-19T11:00:36.244Z,98.49
2017-12-19T11:01:36.237Z,98.02
2017-12-19T11:02:36.222Z,98.58
2017-12-19T11:03:36.213Z,97.92
2017-12-19T11:04:36.201Z,98.02
2017-12-19T11:05:36.201Z,98.02
2017-12-19T11:06:36.184Z,98.68
2017-12-19T11:07:36.227Z,98.58
2017-12-19T11:08:36.203Z,98.11
2017-12-19T11:09:36.163Z,98.02
2017-12-19T11:10:36.148Z,98.49
2017-12-19T11:11:35.893Z,98.77
2017-12-19T11:12:36.144Z,98.58
2017-12-19T11:13:36.119Z,98.21
2017-12-19T11:14:36.150Z,98.3
2017-12-19T11:15:36.102Z,98.11
2017-12-19T11:16:36.094Z,98.02
2017-12-19T11:17:35.833Z,97.92
2017-12-19T11:18:36.078Z,97.92
2017-12-19T11:19:36.110Z,97.45
2017-12-19T11:20:36.060Z,97.54
2017-12-19T11:21:35.812Z,97.73
2017-12-19T11:22:36.051Z,97.64
2017-12-19T11:23:36.036Z,98.21
2017-12-19T11:24:36.032Z,98.11
2017-12-19T11:25:36.021Z,98.49
2017-12-19T11:26:36.012Z,98.3
2017-12-19T11:27:36.017Z,98.21
2017-12-19T11:28:35.992Z,98.02
2017-12-19T11:29:36.009Z,97.83
2017-12-19T11:30:35.979Z,97.26
2017-12-19T11:31:35.968Z,97.45
2017-12-19T11:32:35.708Z,97.16
2017-12-19T11:33:35.705Z,96.59
2017-12-19T11:34:35.950Z,96.59
2017-12-19T11:35:35.937Z,96.78
2017-12-19T11:36:35.937Z,97.64
2017-12-19T11:37:35.674Z,97.16
2017-12-19T11:38:35.914Z,97.16
2017-12-19T11:39:35.663Z,97.92
2017-12-19T11:40:35.913Z,97.35
2017-12-19T11:41:35.902Z,97.35
2017-12-19T11:42:35.903Z,97.83
2017-12-19T11:43:35.890Z,97.26
2017-12-19T11:44:35.871Z,96.97
2017-12-19T11:45:35.611Z,96.41
2017-12-19T11:46:35.851Z,96.97
2017-12-19T11:47:35.595Z,97.35
2017-12-19T11:48:35.585Z,96.88
2017-12-19T11:49:35.831Z,96.03
2017-12-19T11:50:35.829Z,96.88
2017-12-19T11:51:35.821Z,96.22
2017-12-19T11:52:35.821Z,97.35
2017-12-19T11:53:35.807Z,97.35
2017-12-19T11:54:35.794Z,97.54
2017-12-19T11:55:35.779Z,97.35
2017-12-19T11:56:35.518Z,97.73
2017-12-19T11:57:35.764Z,96.78
2017-12-19T11:58:35.759Z,96.69
2017-12-19T11:59:35.496Z,96.31
2017-12-19T12:00:35.742Z,95.84
2017-12-19T12:01:35.485Z,96.22
2017-12-19T12:02:35.728Z,96.88
2017-12-19T12:03:35.719Z,96.59
2017-12-19T12:04:35.713Z,97.07
2017-12-19T12:05:35.710Z,96.78
2017-12-19T12:06:35.704Z,96.41
2017-12-19T12:07:35.710Z,96.59
2017-12-19T12:08:35.998Z,96.78
2017-12-19T12:09:35.429Z,96.12
2017-12-19T12:10:35.673Z,95.74
2017-12-19T12:11:35.660Z,95.74
2017-12-19T12:12:35.652Z,94.89
2017-12-19T12:13:35.647Z,95.55
2017-12-19T12:14:35.442Z,95.55
2017-12-19T12:15:35.631Z,94.23
2017-12-19T12:16:35.621Z,94.42
2017-12-19T12:17:35.615Z,93.37
2017-12-19T12:18:35.706Z,94.42
2017-12-19T12:19:35.602Z,94.04
2017-12-19T12:20:35.601Z,94.89
2017-12-19T12:21:35.345Z,95.36
2017-12-19T12:22:35.638Z,95.36
2017-12-19T12:23:39.081Z,94.89
2017-12-19T12:24:35.312Z,95.36
2017-12-19T12:25:35.555Z,95.84
2017-12-19T12:26:35.571Z,95.93
2017-12-19T12:27:35.544Z,95.36
2017-12-19T12:28:35.589Z,95.36
2017-12-19T12:29:35.530Z,94.6
2017-12-19T12:30:35.520Z,94.7
2017-12-19T12:31:35.261Z,94.51
2017-12-19T12:32:35.534Z,94.04
2017-12-19T12:33:35.500Z,93.56
2017-12-19T12:34:35.494Z,93.65
2017-12-19T12:35:35.234Z,93.75
2017-12-19T12:36:35.478Z,94.42
2017-12-19T12:37:35.212Z,94.51
2017-12-19T12:38:35.458Z,93.56
2017-12-19T12:39:35.198Z,93.56
2017-12-19T12:40:35.442Z,93.65
2017-12-19T12:41:35.433Z,93.37
2017-12-19T12:42:35.174Z,93.56
2017-12-19T12:43:35.421Z,93.56
2017-12-19T12:44:35.163Z,92.52
2017-12-19T12:45:35.403Z,91.95
2017-12-19T12:46:35.399Z,92.23
2017-12-19T12:47:35.403Z,92.9
2017-12-19T12:48:35.399Z,93.84
2017-12-19T12:49:35.372Z,93.27
2017-12-19T12:50:35.373Z,93.56
2017-12-19T12:51:35.106Z,93.46
2017-12-19T12:52:35.367Z,93.65
2017-12-19T12:53:35.344Z,94.23
2017-12-19T12:54:35.356Z,94.6
2017-12-19T12:55:35.337Z,94.98
2017-12-19T12:56:35.319Z,94.51
2017-12-19T12:57:35.313Z,94.6
2017-12-19T12:58:35.433Z,93.46
2017-12-19T12:59:35.308Z,93.75
2017-12-19T13:00:35.324Z,94.89
2017-12-19T13:01:35.293Z,94.7
2017-12-19T13:02:35.272Z,95.26
2017-12-19T13:03:35.017Z,94.89
2017-12-19T13:04:35.261Z,95.07
2017-12-19T13:05:35.001Z,95.17
2017-12-19T13:06:35.248Z,95.84
2017-12-19T13:07:35.237Z,95.74
2017-12-19T13:08:34.977Z,96.5
2017-12-19T13:09:35.219Z,96.78
2017-12-19T13:10:35.210Z,96.22
2017-12-19T13:11:35.200Z,96.12
2017-12-19T13:12:35.192Z,96.03
2017-12-19T13:13:35.188Z,96.03
2017-12-19T13:14:35.181Z,96.78
2017-12-19T13:15:35.170Z,96.5
2017-12-19T13:16:35.176Z,96.88
2017-12-19T13:17:35.155Z,96.69
2017-12-19T13:18:35.147Z,96.97
2017-12-19T13:19:34.893Z,96.69
2017-12-19T13:20:34.882Z,96.5
2017-12-19T13:21:35.137Z,96.12
2017-12-19T13:22:34.869Z,96.12
2017-12-19T13:23:35.123Z,95.74